createdAt,value
2019-02-26T00:00:47.012Z,0.43
2019-02-26T00:01:48.540Z,0.48
2019-02-26T00:02:48.594Z,0.45
2019-02-26T00:03:44.819Z,0.43
2019-02-26T00:04:43.796Z,0.62
2019-02-26T00:05:47.895Z,0.41
2019-02-26T00:06:47.186Z,0.45
2019-02-26T00:07:44.426Z,0.39
2019-02-26T00:08:47.243Z,0.33
2019-02-26T00:09:44.734Z,0.27
2019-02-26T00:10:43.729Z,0.25
2019-02-26T00:11:43.744Z,0.27
2019-02-26T00:12:43.720Z,0.12
2019-02-26T00:13:43.692Z,0.23
2019-02-26T00:14:45.361Z,0.21
2019-02-26T00:15:45.762Z,0.27
2019-02-26T00:16:44.593Z,0.27
2019-02-26T00:17:45.885Z,0.30
2019-02-26T00:18:43.649Z,0.33
2019-02-26T00:19:43.626Z,0.38
2019-02-26T00:20:43.631Z,0.41
2019-02-26T00:21:45.774Z,0.46
2019-02-26T00:22:43.594Z,0.45
2019-02-26T00:23:44.455Z,0.45
2019-02-26T00:24:44.468Z,0.38
2019-02-26T00:25:43.592Z,0.45
2019-02-26T00:26:45.148Z,0.57
2019-02-26T00:27:43.537Z,0.60
2019-02-26T00:28:43.755Z,0.61
2019-02-26T00:29:44.318Z,0.65
2019-02-26T00:30:43.518Z,0.60
2019-02-26T00:31:46.053Z,0.60
2019-02-26T00:32:43.482Z,0.68
2019-02-26T00:33:43.471Z,0.72
2019-02-26T00:34:43.460Z,0.65
2019-02-26T00:35:44.277Z,0.72
2019-02-26T00:36:43.468Z,0.79
2019-02-26T00:37:44.032Z,0.70
2019-02-26T00:38:44.443Z,0.67
2019-02-26T00:39:45.175Z,0.71
2019-02-26T00:40:43.395Z,0.62
2019-02-26T00:41:43.382Z,0.76
2019-02-26T00:42:43.377Z,0.62
2019-02-26T00:43:43.363Z,0.65
2019-02-26T00:44:43.363Z,0.64
2019-02-26T00:45:43.338Z,0.72
2019-02-26T00:46:43.329Z,0.78
2019-02-26T00:47:44.119Z,0.60
2019-02-26T00:48:43.329Z,0.72
2019-02-26T00:49:44.231Z,0.68
2019-02-26T00:50:43.283Z,0.61
2019-02-26T00:51:46.029Z,0.80
2019-02-26T00:52:43.264Z,0.64
2019-02-26T00:53:43.286Z,0.71
2019-02-26T00:54:43.246Z,0.60
2019-02-26T00:55:43.229Z,0.61
2019-02-26T00:56:43.216Z,0.61
2019-02-26T00:57:43.277Z,0.62
2019-02-26T00:58:44.149Z,0.75
2019-02-26T00:59:44.172Z,0.65
2019-02-26T01:00:43.180Z,0.79
2019-02-26T01:01:46.006Z,0.78
2019-02-26T01:02:43.150Z,0.85
2019-02-26T01:03:45.279Z,0.92
2019-02-26T01:04:44.721Z,1.00
2019-02-26T01:05:45.297Z,0.90
2019-02-26T01:06:43.112Z,1.04
2019-02-26T01:07:44.903Z,1.01
2019-02-26T01:08:44.793Z,1.04
2019-02-26T01:09:43.103Z,1.06
2019-02-26T01:10:43.691Z,1.03
2019-02-26T01:11:45.079Z,1.16
2019-02-26T01:12:43.052Z,1.14
2019-02-26T01:13:43.028Z,1.14
2019-02-26T01:14:44.057Z,1.18
2019-02-26T01:15:43.022Z,1.04
2019-02-26T01:16:43.781Z,1.08
2019-02-26T01:17:42.985Z,1.08
2019-02-26T01:18:44.387Z,1.16
2019-02-26T01:19:43.140Z,1.06
2019-02-26T01:20:42.986Z,1.06
2019-02-26T01:21:42.937Z,1.07
2019-02-26T01:22:45.338Z,1.10
2019-02-26T01:23:42.917Z,1.08
2019-02-26T01:24:42.919Z,1.07
2019-02-26T01:25:42.896Z,1.10
2019-02-26T01:26:43.623Z,1.03
2019-02-26T01:27:43.716Z,1.00
2019-02-26T01:28:46.131Z,0.90
2019-02-26T01:29:44.604Z,0.88
2019-02-26T01:30:42.847Z,0.94
2019-02-26T01:31:42.859Z,0.98
2019-02-26T01:32:42.817Z,0.96
2019-02-26T01:33:42.804Z,1.01
2019-02-26T01:34:44.894Z,0.94
2019-02-26T01:35:42.787Z,0.88
2019-02-26T01:36:44.819Z,0.79
2019-02-26T01:37:42.773Z,0.76
2019-02-26T01:38:45.880Z,0.72
2019-02-26T01:39:44.679Z,0.68
2019-02-26T01:40:45.647Z,0.61
2019-02-26T01:41:45.439Z,0.67
2019-02-26T01:42:47.245Z,0.51
2019-02-26T01:43:43.708Z,0.62
2019-02-26T01:44:44.372Z,0.42
2019-02-26T01:45:44.005Z,0.48
2019-02-26T01:46:42.676Z,0.41
2019-02-26T01:47:45.265Z,0.43
2019-02-26T01:48:42.646Z,0.48
2019-02-26T01:49:44.250Z,0.46
2019-02-26T01:50:42.620Z,0.46
2019-02-26T01:51:43.284Z,0.64
2019-02-26T01:52:42.597Z,0.60
2019-02-26T01:53:44.428Z,0.62
2019-02-26T01:54:42.592Z,0.60
2019-02-26T01:55:44.173Z,0.78
2019-02-26T01:56:42.551Z,0.79
2019-02-26T01:57:43.693Z,0.79
2019-02-26T01:58:42.529Z,0.82
2019-02-26T01:59:42.532Z,0.80
2019-02-26T02:00:42.518Z,0.82
2019-02-26T02:01:44.681Z,0.80
2019-02-26T02:02:42.499Z,0.85
2019-02-26T02:03:44.707Z,0.89
2019-02-26T02:04:43.483Z,0.90
2019-02-26T02:05:43.224Z,0.83
2019-02-26T02:06:42.449Z,0.85
2019-02-26T02:07:44.367Z,0.79
2019-02-26T02:08:45.404Z,0.82
2019-02-26T02:09:42.409Z,0.78
2019-02-26T02:10:42.448Z,0.80
2019-02-26T02:11:42.386Z,0.78
2019-02-26T02:12:42.385Z,0.72
2019-02-26T02:13:43.848Z,0.72
2019-02-26T02:14:42.354Z,0.71
2019-02-26T02:15:44.309Z,0.78
2019-02-26T02:16:42.344Z,0.71
2019-02-26T02:17:42.317Z,0.79
2019-02-26T02:18:46.052Z,0.71
2019-02-26T02:19:43.301Z,0.68
2019-02-26T02:20:42.286Z,0.75
2019-02-26T02:21:42.298Z,0.68
2019-02-26T02:22:44.260Z,0.80
2019-02-26T02:23:44.119Z,0.82
2019-02-26T02:24:44.503Z,0.72
2019-02-26T02:25:43.417Z,0.78
2019-02-26T02:26:45.300Z,0.76
2019-02-26T02:27:47.532Z,0.70
2019-02-26T02:28:43.195Z,0.70
2019-02-26T02:29:45.719Z,0.72
2019-02-26T02:30:42.188Z,0.67
2019-02-26T02:31:42.163Z,0.79
2019-02-26T02:32:42.165Z,0.65
2019-02-26T02:33:42.155Z,0.67
2019-02-26T02:34:43.103Z,0.58
2019-02-26T02:35:42.129Z,0.41
2019-02-26T02:36:42.109Z,0.42
2019-02-26T02:37:42.116Z,0.42
2019-02-26T02:38:42.104Z,0.41
2019-02-26T02:39:42.074Z,0.42
2019-02-26T02:40:43.312Z,0.38
2019-02-26T02:41:44.246Z,0.43
2019-02-26T02:42:43.199Z,0.43
2019-02-26T02:43:42.043Z,0.39
2019-02-26T02:44:44.475Z,0.38
2019-02-26T02:45:42.008Z,0.33
2019-02-26T02:46:44.348Z,0.33
2019-02-26T02:47:41.997Z,0.28
2019-02-26T02:48:41.986Z,0.30
2019-02-26T02:49:44.278Z,0.23
2019-02-26T02:50:41.953Z,0.16
2019-02-26T02:51:41.959Z,0.18
2019-02-26T02:52:41.939Z,0.09
2019-02-26T02:53:41.931Z,0.15
2019-02-26T02:54:43.969Z,-0.01
2019-02-26T02:55:44.254Z,0.02
2019-02-26T02:56:44.262Z,-0.01
2019-02-26T02:57:41.876Z,-0.06
2019-02-26T02:58:44.248Z,0.05
2019-02-26T02:59:42.379Z,0.03
2019-02-26T03:00:41.845Z,-0.15
2019-02-26T03:01:43.078Z,-0.15
2019-02-26T03:02:43.284Z,-0.18
2019-02-26T03:03:41.811Z,-0.22
2019-02-26T03:04:41.825Z,-0.26
2019-02-26T03:05:43.929Z,-0.26
2019-02-26T03:06:41.775Z,-0.19
2019-02-26T03:07:42.406Z,-0.23
2019-02-26T03:08:42.236Z,-0.26
2019-02-26T03:09:43.293Z,-0.31
2019-02-26T03:10:43.086Z,-0.31
2019-02-26T03:11:44.026Z,-0.33
2019-02-26T03:12:46.935Z,-0.39
2019-02-26T03:13:45.339Z,-0.47
2019-02-26T03:14:41.968Z,-0.42
2019-02-26T03:15:41.681Z,-0.50
2019-02-26T03:16:42.465Z,-0.54
2019-02-26T03:17:41.662Z,-0.42
2019-02-26T03:18:41.647Z,-0.48
2019-02-26T03:19:43.640Z,-0.44
2019-02-26T03:20:41.642Z,-0.44
2019-02-26T03:21:42.146Z,-0.45
2019-02-26T03:22:45.317Z,-0.45
2019-02-26T03:23:43.511Z,-0.39
2019-02-26T03:24:41.578Z,-0.39
2019-02-26T03:25:44.311Z,-0.44
2019-02-26T03:26:41.558Z,-0.42
2019-02-26T03:27:42.650Z,-0.37
2019-02-26T03:28:42.130Z,-0.39
2019-02-26T03:29:41.532Z,-0.34
2019-02-26T03:30:44.195Z,-0.39
2019-02-26T03:31:47.204Z,-0.36
2019-02-26T03:32:45.948Z,-0.18
2019-02-26T03:33:42.479Z,-0.26
2019-02-26T03:34:41.471Z,-0.24
2019-02-26T03:35:41.467Z,-0.26
2019-02-26T03:36:45.079Z,-0.22
2019-02-26T03:37:41.449Z,-0.22
2019-02-26T03:38:44.047Z,-0.11
2019-02-26T03:39:42.416Z,-0.13
2019-02-26T03:40:41.401Z,-0.15
2019-02-26T03:41:43.251Z,-0.16
2019-02-26T03:42:43.329Z,-0.22
2019-02-26T03:43:41.822Z,-0.18
2019-02-26T03:44:41.370Z,-0.11
2019-02-26T03:45:41.348Z,-0.18
2019-02-26T03:46:41.336Z,-0.19
2019-02-26T03:47:41.336Z,-0.08
2019-02-26T03:48:41.317Z,-0.05
2019-02-26T03:49:42.275Z,0.02
2019-02-26T03:50:44.090Z,0.05
2019-02-26T03:51:41.284Z,0.05
2019-02-26T03:52:41.270Z,-0.01
2019-02-26T03:53:41.859Z,0.02
2019-02-26T03:54:42.960Z,0.00
2019-02-26T03:55:43.348Z,-0.04
2019-02-26T03:56:41.228Z,0.07
2019-02-26T03:57:46.829Z,-0.01
2019-02-26T03:58:42.202Z,-0.09
2019-02-26T03:59:41.200Z,-0.01
2019-02-26T04:00:43.630Z,-0.01
2019-02-26T04:01:41.170Z,-0.06
2019-02-26T04:02:43.340Z,-0.08
2019-02-26T04:03:42.518Z,0.00
2019-02-26T04:04:41.153Z,0.12
2019-02-26T04:05:41.152Z,0.20
2019-02-26T04:06:43.746Z,0.23
2019-02-26T04:07:41.103Z,0.30
2019-02-26T04:08:42.237Z,0.28
2019-02-26T04:09:42.276Z,0.33
2019-02-26T04:10:41.119Z,0.25
2019-02-26T04:11:46.992Z,0.28
2019-02-26T04:12:44.641Z,0.27
2019-02-26T04:13:43.149Z,0.28
2019-02-26T04:14:41.028Z,0.15
2019-02-26T04:15:41.016Z,0.13
2019-02-26T04:16:43.523Z,0.10
2019-02-26T04:17:42.280Z,0.10
2019-02-26T04:18:40.983Z,-0.01
2019-02-26T04:19:43.644Z,-0.08
2019-02-26T04:20:44.218Z,-0.05
2019-02-26T04:21:40.948Z,-0.09
2019-02-26T04:22:42.881Z,-0.06
2019-02-26T04:23:44.000Z,-0.09
2019-02-26T04:24:40.917Z,-0.01
2019-02-26T04:25:40.898Z,-0.09
2019-02-26T04:26:40.933Z,0.03
2019-02-26T04:27:41.302Z,-0.05
2019-02-26T04:28:43.013Z,-0.04
2019-02-26T04:29:43.532Z,-0.16
2019-02-26T04:30:41.711Z,-0.19
2019-02-26T04:31:41.587Z,-0.15
2019-02-26T04:32:41.550Z,-0.19
2019-02-26T04:33:41.386Z,-0.12
2019-02-26T04:34:40.800Z,-0.19
2019-02-26T04:35:42.330Z,-0.15
2019-02-26T04:36:42.786Z,-0.16
2019-02-26T04:37:40.764Z,-0.13
2019-02-26T04:38:40.754Z,-0.13
2019-02-26T04:39:42.918Z,-0.16
2019-02-26T04:40:41.031Z,-0.19
2019-02-26T04:41:40.732Z,-0.23
2019-02-26T04:42:42.930Z,-0.22
2019-02-26T04:43:40.699Z,-0.15
2019-02-26T04:44:40.691Z,-0.15
2019-02-26T04:45:40.714Z,-0.15
2019-02-26T04:46:40.664Z,-0.18
2019-02-26T04:47:40.995Z,-0.13
2019-02-26T04:48:40.643Z,-0.11
2019-02-26T04:49:42.755Z,-0.18
2019-02-26T04:50:41.471Z,-0.18
2019-02-26T04:51:42.673Z,-0.13
2019-02-26T04:52:43.374Z,-0.13
2019-02-26T04:53:40.600Z,-0.13
2019-02-26T04:54:40.577Z,-0.16
2019-02-26T04:55:41.548Z,-0.15
2019-02-26T04:56:42.825Z,-0.22
2019-02-26T04:57:43.288Z,-0.09
2019-02-26T04:58:42.467Z,-0.12
2019-02-26T04:59:43.196Z,-0.16
2019-02-26T05:00:40.532Z,-0.12
2019-02-26T05:01:40.499Z,-0.15
2019-02-26T05:02:40.487Z,-0.18
2019-02-26T05:03:40.480Z,-0.22
2019-02-26T05:04:42.196Z,-0.27
2019-02-26T05:05:40.456Z,-0.27
2019-02-26T05:06:40.456Z,-0.37
2019-02-26T05:07:42.307Z,-0.36
2019-02-26T05:08:42.778Z,-0.36
2019-02-26T05:09:40.431Z,-0.42
2019-02-26T05:10:40.398Z,-0.48
2019-02-26T05:11:40.865Z,-0.47
2019-02-26T05:12:40.412Z,-0.65
2019-02-26T05:13:40.366Z,-0.57
2019-02-26T05:14:40.357Z,-0.69
2019-02-26T05:15:40.644Z,-0.70
2019-02-26T05:16:40.520Z,-0.81
2019-02-26T05:17:40.335Z,-0.87
2019-02-26T05:18:40.345Z,-0.92
2019-02-26T05:19:45.356Z,-0.97
2019-02-26T05:20:43.022Z,-0.94
2019-02-26T05:21:41.285Z,-1.00
2019-02-26T05:22:40.268Z,-1.10
2019-02-26T05:23:40.262Z,-1.12
2019-02-26T05:24:43.754Z,-1.18
2019-02-26T05:25:42.338Z,-1.18
2019-02-26T05:26:40.235Z,-1.24
2019-02-26T05:27:42.883Z,-1.23
2019-02-26T05:28:43.626Z,-1.17
2019-02-26T05:29:41.018Z,-1.33
2019-02-26T05:30:41.231Z,-1.28
2019-02-26T05:31:42.932Z,-1.28
2019-02-26T05:32:40.165Z,-1.24
2019-02-26T05:33:40.145Z,-1.33
2019-02-26T05:34:42.692Z,-1.31
2019-02-26T05:35:40.919Z,-1.24
2019-02-26T05:36:42.897Z,-1.30
2019-02-26T05:37:41.149Z,-1.42
2019-02-26T05:38:40.095Z,-1.39
2019-02-26T05:39:42.593Z,-1.36
2019-02-26T05:40:42.637Z,-1.41
2019-02-26T05:41:40.700Z,-1.45
2019-02-26T05:42:40.047Z,-1.35
2019-02-26T05:43:40.041Z,-1.39
2019-02-26T05:44:40.025Z,-1.42
2019-02-26T05:45:40.031Z,-1.38
2019-02-26T05:46:40.006Z,-1.39
2019-02-26T05:47:40.000Z,-1.35
2019-02-26T05:48:42.920Z,-1.41
2019-02-26T05:49:43.281Z,-1.24
2019-02-26T05:50:43.833Z,-1.31
2019-02-26T05:51:39.950Z,-1.27
2019-02-26T05:52:39.939Z,-1.20
2019-02-26T05:53:39.961Z,-1.24
2019-02-26T05:54:39.917Z,-1.18
2019-02-26T05:55:42.274Z,-1.10
2019-02-26T05:56:41.270Z,-1.02
2019-02-26T05:57:39.903Z,-0.92
2019-02-26T05:58:41.912Z,-0.91
2019-02-26T05:59:41.917Z,-0.86
2019-02-26T06:00:39.852Z,-0.87
2019-02-26T06:01:39.840Z,-0.83
2019-02-26T06:02:42.118Z,-0.78
2019-02-26T06:03:41.062Z,-0.70
2019-02-26T06:04:41.034Z,-0.60
2019-02-26T06:05:43.466Z,-0.63
2019-02-26T06:06:40.784Z,-0.62
2019-02-26T06:07:39.789Z,-0.65
2019-02-26T06:08:41.269Z,-0.54
2019-02-26T06:09:39.760Z,-0.57
2019-02-26T06:10:39.746Z,-0.50
2019-02-26T06:11:41.740Z,-0.48
2019-02-26T06:12:43.330Z,-0.45
2019-02-26T06:13:41.146Z,-0.34
2019-02-26T06:14:39.699Z,-0.36
2019-02-26T06:15:39.687Z,-0.37
2019-02-26T06:16:39.676Z,-0.29
2019-02-26T06:17:43.087Z,-0.26
2019-02-26T06:18:41.930Z,-0.22
2019-02-26T06:19:42.111Z,-0.19
2019-02-26T06:20:39.640Z,-0.18
2019-02-26T06:21:42.156Z,-0.11
2019-02-26T06:22:39.633Z,-0.13
2019-02-26T06:23:39.622Z,-0.12
2019-02-26T06:24:39.588Z,-0.13
2019-02-26T06:25:39.578Z,-0.19
2019-02-26T06:26:41.193Z,-0.04
2019-02-26T06:27:39.559Z,0.02
2019-02-26T06:28:40.980Z,-0.01
2019-02-26T06:29:39.543Z,-0.01
2019-02-26T06:30:39.522Z,-0.06
2019-02-26T06:31:42.264Z,-0.04
2019-02-26T06:32:41.855Z,-0.06
2019-02-26T06:33:40.934Z,-0.04
2019-02-26T06:34:39.478Z,-0.04
2019-02-26T06:35:40.695Z,-0.01
2019-02-26T06:36:39.468Z,-0.04
2019-02-26T06:37:40.268Z,0.03
2019-02-26T06:38:39.433Z,-0.01
2019-02-26T06:39:39.421Z,-0.06
2019-02-26T06:40:41.768Z,-0.13
2019-02-26T06:41:41.558Z,-0.06
2019-02-26T06:42:40.372Z,-0.09
2019-02-26T06:43:39.970Z,-0.08
2019-02-26T06:44:41.302Z,-0.16
2019-02-26T06:45:41.094Z,-0.15
2019-02-26T06:46:39.349Z,-0.19
2019-02-26T06:47:39.355Z,-0.16
2019-02-26T06:48:39.324Z,-0.12
2019-02-26T06:49:40.933Z,-0.15
2019-02-26T06:50:41.054Z,-0.24
2019-02-26T06:51:39.297Z,-0.18
2019-02-26T06:52:40.362Z,-0.13
2019-02-26T06:53:39.275Z,-0.19
2019-02-26T06:54:39.257Z,-0.19
2019-02-26T06:55:39.255Z,-0.08
2019-02-26T06:56:43.305Z,-0.04
2019-02-26T06:57:41.386Z,0.03
2019-02-26T06:58:41.163Z,0.05
2019-02-26T06:59:39.207Z,0.21
2019-02-26T07:00:39.191Z,0.15
2019-02-26T07:01:39.650Z,0.15
2019-02-26T07:02:39.167Z,0.30
2019-02-26T07:03:40.887Z,0.28
2019-02-26T07:04:39.145Z,0.33
2019-02-26T07:05:39.140Z,0.33
2019-02-26T07:06:39.123Z,0.38
2019-02-26T07:07:39.113Z,0.41
2019-02-26T07:08:39.102Z,0.46
2019-02-26T07:09:41.025Z,0.58
2019-02-26T07:10:39.078Z,0.61
2019-02-26T07:11:39.074Z,0.72
2019-02-26T07:12:41.341Z,0.72
2019-02-26T07:13:41.055Z,0.62
2019-02-26T07:14:39.038Z,0.80
2019-02-26T07:15:39.062Z,0.90
2019-02-26T07:16:40.351Z,1.10
2019-02-26T07:17:40.674Z,1.24
2019-02-26T07:18:38.989Z,1.28
2019-02-26T07:19:38.980Z,1.26
2019-02-26T07:20:39.987Z,1.26
2019-02-26T07:21:40.638Z,1.24
2019-02-26T07:22:39.856Z,1.28
2019-02-26T07:23:40.040Z,1.24
2019-02-26T07:24:41.206Z,1.29
2019-02-26T07:25:41.324Z,1.33
2019-02-26T07:26:41.189Z,1.40
2019-02-26T07:27:38.898Z,1.39
2019-02-26T07:28:39.690Z,1.29
2019-02-26T07:29:40.081Z,1.34
2019-02-26T07:30:39.903Z,1.34
2019-02-26T07:31:38.849Z,1.37
2019-02-26T07:32:40.625Z,1.40
2019-02-26T07:33:39.595Z,1.36
2019-02-26T07:34:40.429Z,1.36
2019-02-26T07:35:39.724Z,1.40
2019-02-26T07:36:38.791Z,1.47
2019-02-26T07:37:40.368Z,1.52
2019-02-26T07:38:41.608Z,1.61
2019-02-26T07:39:40.210Z,1.62
2019-02-26T07:40:40.476Z,1.55
2019-02-26T07:41:38.744Z,1.75
2019-02-26T07:42:39.590Z,1.76
2019-02-26T07:43:41.158Z,1.79
2019-02-26T07:44:38.732Z,1.90
2019-02-26T07:45:38.692Z,1.99
2019-02-26T07:46:40.236Z,2.06
2019-02-26T07:47:38.683Z,2.01
2019-02-26T07:48:38.660Z,2.06
2019-02-26T07:49:38.656Z,2.10
2019-02-26T07:50:41.563Z,2.19
2019-02-26T07:51:40.420Z,2.28
2019-02-26T07:52:38.614Z,2.27
2019-02-26T07:53:42.049Z,2.37
2019-02-26T07:54:41.911Z,2.26
2019-02-26T07:55:41.943Z,2.49
2019-02-26T07:56:38.570Z,2.41
2019-02-26T07:57:40.541Z,2.52
2019-02-26T07:58:40.707Z,2.46
2019-02-26T07:59:39.874Z,2.41
2019-02-26T08:00:40.360Z,2.46
2019-02-26T08:01:39.892Z,2.51
2019-02-26T08:02:38.542Z,2.52
2019-02-26T08:03:38.499Z,2.58
2019-02-26T08:04:39.483Z,2.55
2019-02-26T08:05:38.474Z,2.67
2019-02-26T08:06:38.584Z,2.58
2019-02-26T08:07:38.460Z,2.61
2019-02-26T08:08:40.252Z,2.69
2019-02-26T08:09:38.425Z,2.79
2019-02-26T08:10:40.160Z,2.76
2019-02-26T08:11:41.098Z,2.81
2019-02-26T08:12:40.314Z,2.88
2019-02-26T08:13:38.381Z,2.89
2019-02-26T08:14:40.193Z,3.02
2019-02-26T08:15:39.875Z,2.94
2019-02-26T08:16:38.379Z,3.21
2019-02-26T08:17:38.336Z,3.30
2019-02-26T08:18:38.331Z,3.33
2019-02-26T08:19:39.849Z,3.49
2019-02-26T08:20:40.235Z,3.57
2019-02-26T08:21:38.296Z,3.61
2019-02-26T08:22:38.298Z,3.67
2019-02-26T08:23:38.271Z,3.75
2019-02-26T08:24:38.268Z,3.82
2019-02-26T08:25:38.246Z,3.75
2019-02-26T08:26:40.382Z,3.85
2019-02-26T08:27:38.226Z,3.86
2019-02-26T08:28:38.994Z,3.98
2019-02-26T08:29:38.210Z,4.16
2019-02-26T08:30:40.240Z,4.28
2019-02-26T08:31:38.180Z,4.39
2019-02-26T08:32:39.212Z,4.42
2019-02-26T08:33:38.158Z,4.57
2019-02-26T08:34:39.791Z,4.72
2019-02-26T08:35:38.144Z,4.62
2019-02-26T08:36:38.133Z,4.79
2019-02-26T08:37:38.121Z,4.89
2019-02-26T08:38:38.118Z,4.95
2019-02-26T08:39:38.777Z,4.95
2019-02-26T08:40:38.082Z,4.96
2019-02-26T08:41:38.069Z,4.98
2019-02-26T08:42:38.063Z,5.07
2019-02-26T08:43:42.164Z,5.13
2019-02-26T08:44:39.032Z,5.13
2019-02-26T08:45:38.043Z,5.19
2019-02-26T08:46:39.784Z,5.19
2019-02-26T08:47:38.002Z,5.30
2019-02-26T08:48:39.446Z,5.34
2019-02-26T08:49:40.126Z,5.38
2019-02-26T08:50:39.063Z,5.40
2019-02-26T08:51:37.958Z,5.43
2019-02-26T08:52:37.945Z,5.63
2019-02-26T08:53:37.935Z,5.66
2019-02-26T08:54:37.965Z,5.70
2019-02-26T08:55:37.914Z,5.82
2019-02-26T08:56:38.731Z,5.88
2019-02-26T08:57:37.891Z,5.92
2019-02-26T08:58:37.876Z,5.98
2019-02-26T08:59:37.867Z,5.98
2019-02-26T09:00:37.898Z,6.01
2019-02-26T09:01:37.845Z,6.07
2019-02-26T09:02:37.834Z,6.14
2019-02-26T09:03:40.735Z,6.13
2019-02-26T09:04:38.508Z,6.16
2019-02-26T09:05:37.800Z,6.36
2019-02-26T09:06:37.810Z,6.32
2019-02-26T09:07:39.834Z,6.40
2019-02-26T09:08:38.630Z,6.53
2019-02-26T09:09:37.756Z,6.61
2019-02-26T09:10:38.710Z,6.69
2019-02-26T09:11:38.785Z,6.73
2019-02-26T09:12:39.024Z,6.90
2019-02-26T09:13:38.855Z,6.94
2019-02-26T09:14:40.258Z,6.89
2019-02-26T09:15:39.039Z,6.89
2019-02-26T09:16:37.676Z,6.94
2019-02-26T09:17:39.741Z,7.01
2019-02-26T09:18:40.387Z,7.07
2019-02-26T09:19:38.168Z,7.20
2019-02-26T09:20:37.632Z,7.16
2019-02-26T09:21:39.484Z,7.26
2019-02-26T09:22:37.623Z,7.23
2019-02-26T09:23:37.617Z,7.27
2019-02-26T09:24:37.594Z,7.34
2019-02-26T09:25:37.575Z,7.32
2019-02-26T09:26:37.564Z,7.40
2019-02-26T09:27:42.808Z,7.34
2019-02-26T09:28:38.555Z,7.40
2019-02-26T09:29:39.803Z,7.34
2019-02-26T09:30:38.969Z,7.44
2019-02-26T09:31:37.513Z,7.44
2019-02-26T09:32:39.767Z,7.59
2019-02-26T09:33:38.694Z,7.63
2019-02-26T09:34:39.844Z,7.77
2019-02-26T09:35:37.461Z,7.81
2019-02-26T09:36:37.451Z,7.81
2019-02-26T09:37:37.444Z,7.81
2019-02-26T09:38:39.218Z,7.89
2019-02-26T09:39:39.090Z,7.92
2019-02-26T09:40:37.407Z,8.03
2019-02-26T09:41:38.551Z,8.00
2019-02-26T09:42:37.385Z,8.03
2019-02-26T09:43:38.788Z,7.96
2019-02-26T09:44:37.377Z,7.97
2019-02-26T09:45:37.384Z,7.96
2019-02-26T09:46:39.354Z,8.12
2019-02-26T09:47:37.328Z,8.14
2019-02-26T09:48:38.260Z,8.18
2019-02-26T09:49:37.307Z,8.25
2019-02-26T09:50:38.643Z,8.36
2019-02-26T09:51:37.993Z,8.37
2019-02-26T09:52:37.272Z,8.47
2019-02-26T09:53:37.263Z,8.51
2019-02-26T09:54:40.241Z,8.47
2019-02-26T09:55:37.239Z,8.60
2019-02-26T09:56:37.700Z,8.65
2019-02-26T09:57:37.227Z,8.68
2019-02-26T09:58:38.182Z,8.76
2019-02-26T09:59:38.506Z,8.84
2019-02-26T10:00:37.692Z,8.83
2019-02-26T10:01:37.819Z,8.87
2019-02-26T10:02:37.193Z,8.88
2019-02-26T10:03:39.107Z,8.87
2019-02-26T10:04:37.137Z,8.88
2019-02-26T10:05:37.130Z,8.96
2019-02-26T10:06:37.996Z,9.01
2019-02-26T10:07:38.723Z,9.06
2019-02-26T10:08:37.105Z,9.10
2019-02-26T10:09:38.215Z,9.20
2019-02-26T10:10:39.691Z,9.20
2019-02-26T10:11:39.190Z,9.15
2019-02-26T10:12:39.264Z,9.16
2019-02-26T10:13:39.474Z,9.21
2019-02-26T10:14:38.522Z,9.27
2019-02-26T10:15:39.706Z,9.24
2019-02-26T10:16:37.007Z,9.28
2019-02-26T10:17:38.056Z,9.39
2019-02-26T10:18:36.994Z,9.31
2019-02-26T10:19:38.732Z,9.32
2019-02-26T10:20:36.960Z,9.38
2019-02-26T10:21:37.516Z,9.39
2019-02-26T10:22:38.494Z,9.31
2019-02-26T10:23:36.945Z,9.49
2019-02-26T10:24:38.017Z,9.45
2019-02-26T10:25:38.709Z,9.35
2019-02-26T10:26:39.324Z,9.48
2019-02-26T10:27:38.794Z,9.34
2019-02-26T10:28:39.483Z,9.48
2019-02-26T10:29:39.353Z,9.56
2019-02-26T10:30:41.028Z,9.58
2019-02-26T10:31:40.196Z,9.64
2019-02-26T10:32:36.824Z,9.64
2019-02-26T10:33:38.666Z,9.71
2019-02-26T10:34:36.801Z,9.88
2019-02-26T10:35:39.725Z,9.94
2019-02-26T10:36:40.744Z,9.93
2019-02-26T10:37:39.097Z,9.93
2019-02-26T10:38:38.473Z,9.91
2019-02-26T10:39:36.767Z,9.94
2019-02-26T10:40:50.142Z,9.89
2019-02-26T10:41:39.879Z,10.01
2019-02-26T10:42:39.736Z,10.12
2019-02-26T10:43:36.699Z,10.09
2019-02-26T10:44:36.688Z,10.12
2019-02-26T10:45:41.553Z,10.24
2019-02-26T10:46:41.410Z,10.19
2019-02-26T10:47:36.653Z,10.33
2019-02-26T10:48:36.644Z,10.34
2019-02-26T10:49:36.631Z,10.33
2019-02-26T10:50:37.324Z,10.32
2019-02-26T10:51:36.612Z,10.44
2019-02-26T10:52:36.608Z,10.44
2019-02-26T10:53:36.599Z,10.51
2019-02-26T10:54:40.204Z,10.53
2019-02-26T10:55:41.200Z,10.52
2019-02-26T10:56:40.081Z,10.60
2019-02-26T10:57:38.375Z,10.62
2019-02-26T10:58:36.531Z,10.66
2019-02-26T10:59:36.517Z,10.68
2019-02-26T11:00:37.892Z,10.78
2019-02-26T11:01:36.494Z,10.78
2019-02-26T11:02:36.485Z,10.89
2019-02-26T11:03:40.865Z,10.89
2019-02-26T11:04:41.061Z,10.98
2019-02-26T11:05:37.737Z,10.98
2019-02-26T11:06:39.033Z,11.06
2019-02-26T11:07:39.936Z,11.03
2019-02-26T11:08:36.448Z,11.17
2019-02-26T11:09:36.425Z,11.20
2019-02-26T11:10:41.343Z,11.19
2019-02-26T11:11:38.060Z,11.16
2019-02-26T11:12:36.370Z,11.20
2019-02-26T11:13:37.275Z,11.21
2019-02-26T11:14:38.958Z,11.25
2019-02-26T11:15:36.346Z,11.16
2019-02-26T11:16:38.914Z,11.13
2019-02-26T11:17:36.316Z,11.09
2019-02-26T11:18:37.248Z,11.06
2019-02-26T11:19:38.852Z,11.20
2019-02-26T11:20:37.283Z,11.20
2019-02-26T11:21:36.303Z,11.19
2019-02-26T11:22:36.257Z,11.25
2019-02-26T11:23:38.324Z,11.24
2019-02-26T11:24:36.339Z,11.28
2019-02-26T11:25:37.015Z,11.35
2019-02-26T11:26:38.338Z,11.34
2019-02-26T11:27:38.028Z,11.32
2019-02-26T11:28:40.021Z,11.34
2019-02-26T11:29:38.242Z,11.24
2019-02-26T11:30:36.180Z,11.19
2019-02-26T11:31:36.998Z,11.35
2019-02-26T11:32:37.941Z,11.41
2019-02-26T11:33:36.148Z,11.46
2019-02-26T11:34:38.201Z,11.47
2019-02-26T11:35:36.146Z,11.47
2019-02-26T11:36:38.362Z,11.49
2019-02-26T11:37:36.090Z,11.35
2019-02-26T11:38:39.079Z,11.46
2019-02-26T11:39:36.072Z,11.38
2019-02-26T11:40:36.056Z,11.46
2019-02-26T11:41:36.057Z,11.50
2019-02-26T11:42:36.033Z,11.49
2019-02-26T11:43:36.024Z,11.47
2019-02-26T11:44:36.010Z,11.44
2019-02-26T11:45:37.093Z,11.50
2019-02-26T11:46:36.028Z,11.47
2019-02-26T11:47:37.412Z,11.61
2019-02-26T11:48:35.966Z,11.68
2019-02-26T11:49:36.994Z,11.70
2019-02-26T11:50:35.944Z,11.65
2019-02-26T11:51:37.292Z,11.80
2019-02-26T11:52:36.420Z,11.75
2019-02-26T11:53:35.919Z,11.78
2019-02-26T11:54:37.318Z,11.94
2019-02-26T11:55:37.435Z,11.89
2019-02-26T11:56:39.683Z,11.89
2019-02-26T11:57:37.679Z,11.94
2019-02-26T11:58:35.863Z,11.83
2019-02-26T11:59:38.082Z,12.01
2019-02-26T12:00:37.331Z,11.97
2019-02-26T12:01:36.938Z,12.13
2019-02-26T12:02:37.087Z,12.15
2019-02-26T12:03:37.124Z,12.37
2019-02-26T12:04:35.794Z,12.33
2019-02-26T12:05:38.320Z,12.38
2019-02-26T12:06:35.769Z,12.34
2019-02-26T12:07:35.752Z,12.39
2019-02-26T12:08:37.304Z,12.41
2019-02-26T12:09:38.539Z,12.39
2019-02-26T12:10:37.957Z,12.38
2019-02-26T12:11:35.718Z,12.30
2019-02-26T12:12:36.842Z,12.30
2019-02-26T12:13:35.684Z,12.23
2019-02-26T12:14:37.988Z,12.15
2019-02-26T12:15:38.424Z,12.26
2019-02-26T12:16:35.666Z,12.30
2019-02-26T12:17:35.637Z,12.45
2019-02-26T12:18:36.827Z,12.51
2019-02-26T12:19:37.148Z,12.48
2019-02-26T12:20:37.968Z,12.57
2019-02-26T12:21:37.013Z,12.60
2019-02-26T12:22:35.585Z,12.46
2019-02-26T12:23:37.379Z,12.41
2019-02-26T12:24:36.160Z,12.44
2019-02-26T12:25:35.555Z,12.44
2019-02-26T12:26:35.550Z,12.38
2019-02-26T12:27:36.099Z,12.42
2019-02-26T12:28:37.610Z,12.33
2019-02-26T12:29:35.503Z,12.41
2019-02-26T12:30:37.461Z,12.44
2019-02-26T12:31:36.975Z,12.46
2019-02-26T12:32:35.470Z,12.51
2019-02-26T12:33:35.465Z,12.54
2019-02-26T12:34:38.374Z,12.60
2019-02-26T12:35:35.802Z,12.62
2019-02-26T12:36:35.576Z,12.69
2019-02-26T12:37:35.423Z,12.82
2019-02-26T12:38:36.796Z,12.96
2019-02-26T12:39:35.392Z,12.89
2019-02-26T12:40:37.868Z,13.00
2019-02-26T12:41:38.678Z,12.97
2019-02-26T12:42:35.844Z,12.97
2019-02-26T12:43:36.743Z,12.96
2019-02-26T12:44:37.982Z,13.00
2019-02-26T12:45:38.697Z,12.97
2019-02-26T12:46:35.332Z,12.89
2019-02-26T12:47:35.300Z,12.79
2019-02-26T12:48:37.814Z,12.66
2019-02-26T12:49:38.389Z,12.71
2019-02-26T12:50:37.443Z,12.71
2019-02-26T12:51:35.571Z,12.89
2019-02-26T12:52:35.246Z,12.93
2019-02-26T12:53:36.231Z,12.97
2019-02-26T12:54:37.806Z,13.11
2019-02-26T12:55:38.219Z,13.17
2019-02-26T12:56:37.242Z,13.33
2019-02-26T12:57:35.206Z,13.20
2019-02-26T12:58:35.174Z,13.17
2019-02-26T12:59:35.187Z,13.12
2019-02-26T13:00:37.660Z,13.21
2019-02-26T13:01:39.378Z,13.07
2019-02-26T13:02:36.852Z,13.17
2019-02-26T13:03:38.659Z,13.07
2019-02-26T13:04:37.787Z,13.11
2019-02-26T13:05:38.410Z,13.09
2019-02-26T13:06:37.513Z,13.07